Time;durP1;ratioP1;P1;durP2;ratioP2;P2;SDS_P1;SDS_P2;PMS_P1;PMS_P2;Temp;Humidity;BMP_temperature;BMP_pressure;BME280_temperature;BME280_humidity;BME280_pressure;Samples;Min_cycle;Max_cycle;Signal;HPM_P1;HPM_P2
2022/07/03 00:00:52;;;;;;;9.38;5.30;;;;;;;26.12;40.64;99913.62;4493290;31;33980;-60
2022/07/03 00:03:20;;;;;;;9.93;5.57;;;;;;;26.01;40.56;99917.00;4493843;31;33311;-59
2022/07/03 00:05:48;;;;;;;9.00;5.80;;;;;;;25.95;41.06;99915.94;4491173;31;32376;-59
2022/07/03 00:08:15;;;;;;;8.27;5.70;;;;;;;26.01;40.91;99914.28;4500266;31;35091;-58
2022/07/03 00:10:43;;;;;;;8.35;5.25;;;;;;;26.17;40.44;99916.56;4499421;31;33858;-58
2022/07/03 00:13:11;;;;;;;7.62;5.37;;;;;;;25.94;40.79;99918.88;4484262;31;32300;-59
2022/07/03 00:15:38;;;;;;;8.32;5.40;;;;;;;25.97;40.67;99921.19;4497989;31;33501;-59
2022/07/03 00:18:06;;;;;;;8.13;5.37;;;;;;;25.84;41.03;99913.81;4493102;31;33383;-62
2022/07/03 00:20:43;;;;;;;8.68;5.20;;;;;;;25.85;40.92;99912.78;4498783;31;34207;-59
2022/07/03 00:23:14;;;;;;;12.55;5.43;;;;;;;25.79;40.96;99908.94;4493797;31;32162;-61
2022/07/03 00:25:41;;;;;;;11.45;5.55;;;;;;;25.80;41.06;99918.00;4497782;31;32687;-58
2022/07/03 00:28:09;;;;;;;8.77;5.72;;;;;;;25.79;41.05;99908.94;4496628;31;34824;-60
2022/07/03 00:30:37;;;;;;;7.50;5.68;;;;;;;25.73;41.27;99901.56;4496994;31;32862;-60
2022/07/03 00:33:05;;;;;;;9.70;6.15;;;;;;;25.71;41.38;99908.28;4498477;31;31693;-60
2022/07/03 00:35:35;;;;;;;8.30;5.25;;;;;;;25.71;41.34;99906.41;4496816;31;33899;-59
2022/07/03 00:38:03;;;;;;;8.38;6.05;;;;;;;25.71;41.41;99906.41;4482451;32;33343;-59
2022/07/03 00:40:31;;;;;;;8.85;5.85;;;;;;;25.63;41.61;99906.62;4491916;31;32904;-61
2022/07/03 00:43:00;;;;;;;7.75;5.55;;;;;;;25.60;41.74;99909.78;4497798;31;34450;-59
2022/07/03 00:45:28;;;;;;;9.38;6.25;;;;;;;25.54;41.79;99910.59;4491963;31;32524;-60
2022/07/03 00:47:56;;;;;;;11.25;6.25;;;;;;;25.52;41.92;99915.44;4487671;31;34761;-59
2022/07/03 00:50:26;;;;;;;7.05;4.97;;;;;;;25.52;41.88;99916.31;4494037;31;32330;-59
2022/07/03 00:52:54;;;;;;;9.20;5.70;;;;;;;25.51;41.73;99905.53;4496776;31;32243;-59
2022/07/03 00:55:22;;;;;;;7.35;5.60;;;;;;;25.54;41.91;99907.84;4495607;31;33774;-59
2022/07/03 00:57:50;;;;;;;8.35;6.18;;;;;;;25.50;42.07;99898.38;4487226;31;33987;-60
2022/07/03 01:00:18;;;;;;;8.45;5.32;;;;;;;25.58;41.71;99903.63;4495671;31;34139;-60
2022/07/03 01:03:06;;;;;;;8.88;6.18;;;;;;;25.57;41.72;99896.47;4498258;31;34202;-58
2022/07/03 01:05:42;;;;;;;12.18;7.10;;;;;;;25.58;41.82;99900.91;4497316;31;35014;-59
2022/07/03 01:08:18;;;;;;;9.88;6.32;;;;;;;25.54;41.86;99900.47;4496671;31;34005;-63
2022/07/03 01:10:55;;;;;;;8.20;6.70;;;;;;;25.51;42.00;99892.66;4498232;31;33554;-58
2022/07/03 01:13:29;;;;;;;9.35;5.70;;;;;;;25.54;41.98;99894.16;4497995;31;33095;-59
2022/07/03 01:16:40;;;;;;;9.82;6.30;;;;;;;25.53;42.08;99889.75;4484401;31;34598;-62
2022/07/03 01:19:42;;;;;;;8.75;6.25;;;;;;;25.59;41.95;99897.13;4480669;31;32559;-61
2022/07/03 01:22:30;;;;;;;9.40;6.20;;;;;;;25.43;42.21;99892.03;4488501;31;35324;-59
2022/07/03 01:25:01;;;;;;;8.52;6.30;;;;;;;25.47;42.33;99890.56;4495887;31;33217;-60
2022/07/03 01:27:52;;;;;;;9.48;6.72;;;;;;;25.42;42.44;99893.91;4497554;31;34817;-60
2022/07/03 01:30:20;;;;;;;8.65;5.87;;;;;;;25.48;42.27;99886.75;4489912;31;33950;-61
2022/07/03 01:32:57;;;;;;;8.48;6.07;;;;;;;25.49;42.25;99881.09;4498251;31;33921;-59
2022/07/03 01:35:39;;;;;;;8.75;7.03;;;;;;;25.42;42.33;99877.47;4499456;31;33031;-60
2022/07/03 01:38:10;;;;;;;7.82;5.87;;;;;;;25.47;42.30;99879.59;4491939;31;33923;-60
2022/07/03 01:40:39;;;;;;;8.15;5.72;;;;;;;25.40;42.37;99878.75;4498330;31;32882;-61
2022/07/03 01:43:12;;;;;;;7.78;6.12;;;;;;;25.44;42.38;99874.53;4491396;31;34713;-60
2022/07/03 01:45:43;;;;;;;11.15;6.78;;;;;;;25.32;42.68;99877.03;4495199;31;32276;-60
2022/07/03 01:48:11;;;;;;;8.23;6.03;;;;;;;25.29;42.78;99870.06;4489785;31;32488;-60
2022/07/03 01:50:41;;;;;;;9.60;6.00;;;;;;;25.40;42.60;99871.37;4492017;31;33824;-59
2022/07/03 01:53:10;;;;;;;9.25;6.40;;;;;;;25.43;42.54;99873.69;4499313;31;34724;-60
2022/07/03 01:55:40;;;;;;;9.35;6.20;;;;;;;25.31;42.95;99878.94;4486443;31;33034;-62
2022/07/03 01:58:08;;;;;;;8.30;6.05;;;;;;;25.28;43.15;99870.28;4489741;31;32640;-60
2022/07/03 02:00:45;;;;;;;8.38;5.97;;;;;;;25.38;42.90;99873.47;4498062;31;34007;-60
2022/07/03 02:03:22;;;;;;;7.00;5.78;;;;;;;25.42;42.82;99873.91;4497557;31;33610;-60
2022/07/03 02:05:58;;;;;;;8.80;6.90;;;;;;;25.42;42.89;99869.25;4497546;31;33231;-61
2022/07/03 02:08:54;;;;;;;10.15;5.93;;;;;;;25.30;42.95;99869.03;4486889;31;33654;-61
2022/07/03 02:11:43;;;;;;;;;;;;;;;25.41;42.77;99874.97;4493155;31;33876;-62
2022/07/03 02:14:19;;;;;;;8.52;6.43;;;;;;;25.36;42.77;99883.81;4495757;31;34223;-60
2022/07/03 02:17:05;;;;;;;7.97;6.18;;;;;;;25.17;43.23;99876.38;4489962;31;33460;-58
2022/07/03 02:19:52;;;;;;;8.38;6.37;;;;;;;25.27;42.84;99880.41;4498934;31;33352;-60
2022/07/03 02:22:25;;;;;;;8.40;6.18;;;;;;;25.08;43.19;99890.22;4495193;31;34021;-60
2022/07/03 02:25:19;;;;;;;9.90;6.43;;;;;;;24.95;43.36;99879.22;4499812;31;33643;-59
2022/07/03 02:27:56;;;;;;;8.00;5.43;;;;;;;25.00;43.27;99881.34;4492975;31;33049;-60
2022/07/03 02:30:24;;;;;;;10.13;6.55;;;;;;;24.94;43.29;99877.53;4497783;31;34538;-62
2022/07/03 02:32:52;;;;;;;9.18;5.68;;;;;;;24.86;43.67;99874.97;4491642;31;32642;-60
2022/07/03 02:35:29;;;;;;;8.82;6.40;;;;;;;24.76;43.87;99880.00;4498383;31;33601;-62
2022/07/03 02:38:09;;;;;;;8.55;6.80;;;;;;;24.72;44.02;99885.03;4500140;31;33452;-60
2022/07/03 02:41:08;;;;;;;9.98;6.22;;;;;;;24.57;44.35;99878.84;4492220;31;33648;-60
2022/07/03 02:43:57;;;;;;;9.00;6.10;;;;;;;24.53;44.60;99875.69;4485572;31;33931;-60
2022/07/03 02:46:49;;;;;;;8.80;6.05;;;;;;;24.52;44.72;99881.34;4500408;31;33875;-61
2022/07/03 02:49:31;;;;;;;9.95;7.07;;;;;;;24.50;44.92;99891.66;4484939;31;33361;-60
2022/07/03 02:52:10;;;;;;;9.77;7.30;;;;;;;24.50;45.03;99895.22;4500591;31;33878;-60
2022/07/03 02:54:45;;;;;;;9.30;6.65;;;;;;;24.53;45.10;99893.97;4490099;31;33872;-60
2022/07/03 02:57:16;;;;;;;9.52;7.45;;;;;;;24.54;45.12;99892.94;4485355;31;32862;-62
2022/07/03 03:00:04;;;;;;;10.15;6.65;;;;;;;24.52;45.10;99890.38;4499983;31;33831;-60
2022/07/03 03:02:51;;;;;;;10.70;7.00;;;;;;;24.59;45.14;99884.94;4500733;31;34994;-60
2022/07/03 03:05:21;;;;;;;10.50;7.05;;;;;;;24.56;45.32;99885.38;4497792;31;33854;-60
2022/07/03 03:08:02;;;;;;;9.80;7.12;;;;;;;24.67;45.05;99881.22;4496656;31;34764;-62
2022/07/03 03:10:34;;;;;;;12.13;7.35;;;;;;;24.69;45.03;99877.22;4500189;31;34303;-60
2022/07/03 03:13:08;;;;;;;13.02;7.20;;;;;;;24.62;45.16;99895.47;4500927;31;33556;-62
2022/07/03 03:15:37;;;;;;;8.63;6.55;;;;;;;24.64;44.86;99896.97;4499314;31;35179;-60
2022/07/03 03:18:07;;;;;;;8.55;6.18;;;;;;;24.66;44.60;99887.75;4499427;31;33849;-59
2022/07/03 03:20:35;;;;;;;9.07;6.95;;;;;;;24.61;44.65;99888.31;4499063;31;33247;-60
2022/07/03 03:23:24;;;;;;;9.25;6.68;;;;;;;24.54;44.81;99873.78;4495878;31;33731;-61
2022/07/03 03:25:54;;;;;;;10.70;6.68;;;;;;;24.54;44.99;99881.97;4497896;31;34017;-61
2022/07/03 03:28:22;;;;;;;9.98;7.57;;;;;;;24.63;44.97;99881.63;4500669;31;33634;-61
2022/07/03 03:30:50;;;;;;;10.52;6.95;;;;;;;24.43;45.58;99882.53;4499747;31;32999;-61
2022/07/03 03:33:19;;;;;;;9.40;7.30;;;;;;;24.63;45.16;99886.25;4488486;31;33871;-61
2022/07/03 03:35:47;;;;;;;9.80;7.20;;;;;;;24.71;45.05;99885.22;4497046;31;33773;-61
2022/07/03 03:38:14;;;;;;;9.77;7.10;;;;;;;24.75;44.91;99876.41;4492836;31;33649;-60
2022/07/03 03:40:43;;;;;;;9.68;6.80;;;;;;;24.80;44.65;99873.91;4497985;31;34226;-60
2022/07/03 03:43:11;;;;;;;9.73;6.93;;;;;;;24.87;44.57;99873.91;4500488;31;33807;-60
2022/07/03 03:45:39;;;;;;;9.35;6.90;;;;;;;24.85;44.58;99860.44;4498749;31;33664;-61
2022/07/03 03:48:06;;;;;;;10.65;7.05;;;;;;;24.82;44.84;99869.06;4499731;31;34672;-60
2022/07/03 03:50:34;;;;;;;9.35;7.00;;;;;;;24.93;44.64;99864.06;4485176;31;34552;-61
2022/07/03 03:53:02;;;;;;;11.20;7.07;;;;;;;25.00;44.66;99871.22;4498807;31;33513;-59
2022/07/03 03:55:29;;;;;;;10.18;7.90;;;;;;;24.96;44.71;99871.84;4498070;31;35020;-67
2022/07/03 03:57:57;;;;;;;9.30;6.62;;;;;;;24.83;44.99;99880.84;4497546;31;35066;-61
2022/07/03 04:00:25;;;;;;;12.88;7.53;;;;;;;24.51;46.09;99894.16;4498656;31;33401;-60
2022/07/03 04:02:52;;;;;;;10.55;7.53;;;;;;;24.63;45.97;99888.97;4498941;31;31974;-60
2022/07/03 04:05:20;;;;;;;9.52;6.87;;;;;;;24.92;45.33;99884.28;4500580;31;33604;-62
2022/07/03 04:07:48;;;;;;;11.18;7.28;;;;;;;24.95;45.36;99886.59;4496483;31;33814;-62
2022/07/03 04:10:15;;;;;;;9.38;6.65;;;;;;;24.43;46.63;99898.94;4496926;31;32255;-62
2022/07/03 04:12:43;;;;;;;11.45;7.60;;;;;;;24.90;45.70;99892.69;4495709;31;33661;-59
2022/07/03 04:15:10;;;;;;;9.32;6.80;;;;;;;24.91;46.06;99888.91;4500347;31;34181;-61
2022/07/03 04:17:38;;;;;;;10.25;7.40;;;;;;;25.10;45.85;99895.47;4498091;31;34385;-60
2022/07/03 04:20:06;;;;;;;10.57;7.10;;;;;;;25.21;45.83;99900.41;4500366;31;33205;-60
2022/07/03 04:22:34;;;;;;;10.35;7.20;;;;;;;25.38;45.53;99894.56;4496317;31;34986;-61
2022/07/03 04:25:02;;;;;;;10.43;7.00;;;;;;;25.40;45.63;99882.34;4497050;31;35160;-60
2022/07/03 04:27:30;;;;;;;13.18;6.60;;;;;;;25.18;46.46;99876.16;4499822;31;33900;-60
2022/07/03 04:30:18;;;;;;;9.30;7.32;;;;;;;25.36;46.17;99878.34;4499895;31;33095;-60
2022/07/03 04:32:46;;;;;;;8.77;6.70;;;;;;;25.42;46.16;99882.97;4489621;31;33559;-60
2022/07/03 04:35:14;;;;;;;9.73;7.22;;;;;;;25.75;45.50;99882.16;4490297;31;34025;-60
2022/07/03 04:37:42;;;;;;;10.52;6.97;;;;;;;25.98;44.95;99879.03;4495811;31;34213;-60
2022/07/03 04:40:11;;;;;;;9.57;7.20;;;;;;;25.95;44.97;99873.97;4497631;31;34338;-60
2022/07/03 04:42:39;;;;;;;10.02;6.68;;;;;;;26.14;44.42;99870.38;4497235;31;33781;-60
2022/07/03 04:45:07;;;;;;;10.38;7.20;;;;;;;26.21;44.47;99868.44;4494300;31;33965;-60
2022/07/03 04:47:35;;;;;;;10.15;7.03;;;;;;;26.16;44.77;99875.62;4486254;31;33938;-60
2022/07/03 04:50:03;;;;;;;10.73;7.15;;;;;;;26.30;44.38;99866.34;4499243;31;34562;-59
2022/07/03 04:52:30;;;;;;;8.82;6.55;;;;;;;26.32;44.50;99874.34;4498802;31;33984;-59
2022/07/03 04:54:58;;;;;;;10.63;6.57;;;;;;;26.22;44.55;99875.62;4500104;31;34946;-59
2022/07/03 04:57:26;;;;;;;12.30;7.20;;;;;;;26.23;44.61;99868.25;4495981;31;33777;-60
2022/07/03 04:59:53;;;;;;;10.80;7.35;;;;;;;26.13;44.89;99865.94;4494690;31;32926;-60
2022/07/03 05:02:21;;;;;;;11.20;7.30;;;;;;;26.36;44.41;99856.41;4498057;31;33899;-62
2022/07/03 05:04:49;;;;;;;10.43;7.30;;;;;;;26.38;44.64;99859.75;4496831;31;33880;-59
2022/07/03 05:07:16;;;;;;;9.98;6.90;;;;;;;26.52;44.64;99858.72;4495875;31;34683;-59
2022/07/03 05:09:44;;;;;;;11.40;7.53;;;;;;;26.59;44.11;99861.44;4498687;31;34181;-61
2022/07/03 05:12:12;;;;;;;9.57;6.70;;;;;;;26.65;43.95;99858.66;4499627;31;33583;-60
2022/07/03 05:14:40;;;;;;;11.15;7.68;;;;;;;26.74;43.83;99855.66;4495594;31;33939;-59
2022/07/03 05:17:07;;;;;;;9.40;7.37;;;;;;;26.71;44.20;99857.81;4498483;31;34329;-61
2022/07/03 05:19:37;;;;;;;11.75;6.55;;;;;;;26.73;44.23;99852.06;4497994;31;33157;-58
2022/07/03 05:22:05;;;;;;;8.82;6.50;;;;;;;26.98;43.73;99849.44;4499605;31;35813;-61
2022/07/03 05:24:32;;;;;;;8.95;6.57;;;;;;;27.12;43.88;99844.69;4499573;31;33886;-60
2022/07/03 05:27:00;;;;;;;9.63;7.60;;;;;;;26.88;44.15;99844.41;4494087;31;33488;-59
2022/07/03 05:29:28;;;;;;;10.52;7.62;;;;;;;27.26;43.39;99854.59;4496142;31;33314;-59
2022/07/03 05:31:55;;;;;;;10.82;7.80;;;;;;;27.06;43.83;99851.94;4495732;31;33316;-60
2022/07/03 05:34:23;;;;;;;10.38;7.43;;;;;;;27.32;43.48;99853.72;4497329;31;32738;-60
2022/07/03 05:36:51;;;;;;;9.48;7.40;;;;;;;27.43;43.28;99860.41;4496939;31;34796;-61
2022/07/03 05:39:33;;;;;;;9.95;7.10;;;;;;;27.51;43.22;99843.66;4497247;31;33483;-59
2022/07/03 05:42:02;;;;;;;9.00;6.82;;;;;;;27.51;43.07;99856.53;4490246;31;33870;-62
2022/07/03 05:44:29;;;;;;;8.73;6.00;;;;;;;27.36;43.35;99854.13;4495238;31;35256;-59
2022/07/03 05:46:57;;;;;;;9.43;7.47;;;;;;;27.22;43.50;99864.31;4499459;31;32434;-61
2022/07/03 05:49:25;;;;;;;8.73;7.12;;;;;;;27.34;43.28;99861.72;4489337;31;32916;-61
2022/07/03 05:51:52;;;;;;;9.20;6.95;;;;;;;27.48;43.03;99860.59;4492111;31;33616;-61
2022/07/03 05:54:20;;;;;;;10.32;7.50;;;;;;;27.35;43.25;99866.16;4499086;31;35192;-62
2022/07/03 05:56:48;;;;;;;9.60;7.20;;;;;;;27.55;42.71;99863.28;4498767;31;34016;-60
2022/07/03 05:59:15;;;;;;;9.07;7.03;;;;;;;27.30;43.33;99871.47;4496616;31;32062;-60
2022/07/03 06:01:43;;;;;;;9.93;6.35;;;;;;;27.51;43.38;99856.53;4500129;31;33401;-59
2022/07/03 06:04:10;;;;;;;12.07;7.18;;;;;;;27.71;43.21;99864.66;4498391;31;35276;-65
2022/07/03 06:06:38;;;;;;;8.75;6.55;;;;;;;27.83;42.56;99865.63;4489100;31;33297;-62
2022/07/03 06:09:06;;;;;;;10.48;6.87;;;;;;;27.96;42.08;99870.16;4497830;31;32978;-61
2022/07/03 06:11:34;;;;;;;11.05;6.62;;;;;;;27.97;41.81;99861.69;4500468;31;34037;-62
2022/07/03 06:14:01;;;;;;;9.70;6.95;;;;;;;28.01;41.87;99865.66;4497255;31;34058;-62
2022/07/03 06:16:29;;;;;;;9.93;6.82;;;;;;;28.14;41.80;99877.63;4499015;31;34622;-65
2022/07/03 06:18:57;;;;;;;9.93;7.37;;;;;;;27.97;42.46;99877.38;4500570;31;33374;-64
2022/07/03 06:21:24;;;;;;;8.80;6.50;;;;;;;28.09;42.68;99884.66;4499043;31;33725;-62
2022/07/03 06:23:56;;;;;;;9.20;7.25;;;;;;;28.26;41.87;99884.91;4498974;31;32793;-63
2022/07/03 06:26:24;;;;;;;8.95;6.75;;;;;;;28.20;41.59;99884.97;4500216;31;35099;-62
2022/07/03 06:28:51;;;;;;;12.10;7.18;;;;;;;28.06;42.53;99874.09;4499568;31;33651;-64
2022/07/03 06:31:19;;;;;;;10.35;6.80;;;;;;;28.49;41.59;99876.00;4493110;31;34614;-61
2022/07/03 06:33:47;;;;;;;10.45;6.65;;;;;;;28.59;41.47;99874.66;4498219;31;33762;-64
2022/07/03 06:36:14;;;;;;;9.18;6.35;;;;;;;28.64;41.49;99870.13;4501346;31;33864;-63
2022/07/03 06:38:42;;;;;;;8.63;6.70;;;;;;;28.53;42.03;99866.22;4496051;31;34279;-60
2022/07/03 06:41:10;;;;;;;8.15;6.10;;;;;;;28.92;41.00;99868.72;4495243;31;33661;-63
2022/07/03 06:43:38;;;;;;;9.85;6.50;;;;;;;28.32;41.95;99861.16;4500074;31;35274;-61
2022/07/03 06:46:06;;;;;;;9.13;6.50;;;;;;;28.48;41.83;99863.31;4498461;31;34051;-61
2022/07/03 06:48:34;;;;;;;10.18;7.20;;;;;;;28.61;40.83;99861.50;4500040;31;34130;-62
2022/07/03 06:51:01;;;;;;;10.13;5.93;;;;;;;28.87;40.38;99861.16;4497798;31;34033;-64
2022/07/03 06:53:29;;;;;;;9.02;6.53;;;;;;;29.09;40.02;99860.72;4499441;31;35035;-65
2022/07/03 06:55:57;;;;;;;8.18;6.37;;;;;;;29.25;40.02;99860.06;4496427;31;33815;-62
2022/07/03 06:58:24;;;;;;;8.93;6.72;;;;;;;29.15;40.57;99863.37;4499865;31;33197;-62
2022/07/03 07:00:52;;;;;;;8.88;6.28;;;;;;;28.79;40.57;99855.97;4494210;31;33657;-64
2022/07/03 07:03:20;;;;;;;9.55;6.82;;;;;;;29.02;40.64;99858.00;4500046;31;33638;-62
2022/07/03 07:05:47;;;;;;;8.82;6.50;;;;;;;29.12;40.49;99852.81;4494590;31;33818;-61
2022/07/03 07:08:15;;;;;;;9.15;6.68;;;;;;;29.30;40.23;99848.31;4494845;31;34557;-62
2022/07/03 07:10:43;;;;;;;9.65;6.60;;;;;;;28.75;40.47;99849.25;4494088;31;32607;-61
2022/07/03 07:13:10;;;;;;;8.60;6.00;;;;;;;28.82;41.22;99843.66;4497205;31;34958;-63
2022/07/03 07:15:38;;;;;;;8.85;6.10;;;;;;;29.03;39.81;99843.19;4500900;31;33876;-60
2022/07/03 07:18:06;;;;;;;8.73;6.65;;;;;;;29.18;40.08;99853.78;4499719;31;33694;-61
2022/07/03 07:20:33;;;;;;;9.07;6.55;;;;;;;28.85;41.81;99841.25;4500873;31;34726;-60
2022/07/03 07:23:01;;;;;;;10.05;6.70;;;;;;;28.60;40.85;99854.28;4500026;31;34791;-63
2022/07/03 07:25:28;;;;;;;9.75;6.97;;;;;;;28.47;40.93;99850.63;4489035;31;32832;-60
2022/07/03 07:27:56;;;;;;;8.73;6.30;;;;;;;29.05;39.65;99843.78;4497126;31;32166;-62
2022/07/03 07:30:24;;;;;;;8.10;6.20;;;;;;;28.99;40.03;99844.69;4492297;31;33948;-60
2022/07/03 07:32:51;;;;;;;8.38;6.20;;;;;;;28.88;41.86;99854.56;4495800;31;35239;-63
2022/07/03 07:35:21;;;;;;;9.02;7.18;;;;;;;28.77;40.81;99849.84;4500173;31;32283;-60
2022/07/03 07:37:49;;;;;;;9.95;7.15;;;;;;;29.34;40.32;99850.38;4496925;31;33270;-62
2022/07/03 07:40:16;;;;;;;11.15;7.28;;;;;;;29.07;40.23;99854.59;4499737;31;32643;-62
2022/07/03 07:42:44;;;;;;;9.25;6.43;;;;;;;28.49;41.58;99856.75;4492569;31;33639;-62
2022/07/03 07:45:12;;;;;;;7.97;6.30;;;;;;;29.11;39.27;99851.13;4500654;31;34963;-59
2022/07/03 07:47:39;;;;;;;7.45;5.93;;;;;;;29.32;39.54;99847.00;4499512;31;32990;-60
2022/07/03 07:50:07;;;;;;;8.40;6.40;;;;;;;29.51;39.48;99860.72;4500852;31;33876;-61
2022/07/03 07:52:35;;;;;;;9.95;6.22;;;;;;;29.33;40.15;99853.34;4499827;31;33961;-62
2022/07/03 07:55:05;;;;;;;9.80;6.50;;;;;;;29.27;40.07;99857.88;4498954;31;34750;-60
2022/07/03 07:57:37;;;;;;;8.13;6.60;;;;;;;29.47;38.88;99866.72;4494693;31;32090;-60
2022/07/03 08:00:12;;;;;;;10.38;7.28;;;;;;;29.56;38.90;99863.59;4498949;31;33540;-61
2022/07/03 08:05:37;;;;;;;9.50;6.72;;;;;;;29.70;39.02;99859.59;4497282;31;34204;-61
2022/07/03 08:08:09;;;;;;;8.85;6.57;;;;;;;29.68;39.14;99867.28;4492892;31;33412;-62
2022/07/03 08:10:57;;;;;;;10.73;6.82;;;;;;;29.42;39.19;99863.81;4500647;31;33870;-62
2022/07/03 08:13:26;;;;;;;10.38;6.95;;;;;;;29.79;38.72;99858.19;4492866;31;33616;-63
2022/07/03 08:15:54;;;;;;;9.18;6.80;;;;;;;30.12;37.73;99862.28;4496325;31;33784;-59
2022/07/03 08:18:21;;;;;;;10.88;9.02;;;;;;;29.65;38.86;99863.06;4499485;31;33463;-59
2022/07/03 08:20:49;;;;;;;8.32;6.97;;;;;;;29.98;38.08;99860.81;4496113;31;32536;-60
2022/07/03 08:23:17;;;;;;;12.10;7.80;;;;;;;30.31;37.97;99861.09;4492895;31;34202;-62
2022/07/03 08:25:44;;;;;;;10.15;6.28;;;;;;;30.32;37.52;99862.78;4499349;31;33343;-60
2022/07/03 08:28:12;;;;;;;10.35;7.75;;;;;;;29.89;39.14;99861.19;4493229;31;32075;-59
2022/07/03 08:30:40;;;;;;;9.00;6.25;;;;;;;29.99;38.69;99865.28;4485641;31;32743;-61
2022/07/03 08:33:07;;;;;;;9.38;7.37;;;;;;;29.89;39.01;99863.94;4493186;31;35214;-59
2022/07/03 08:35:35;;;;;;;9.43;6.62;;;;;;;29.92;38.83;99857.97;4498403;31;34619;-60
2022/07/03 08:38:02;;;;;;;10.45;6.72;;;;;;;30.24;37.70;99854.88;4500362;31;33533;-60
2022/07/03 08:40:31;;;;;;;8.77;6.55;;;;;;;30.26;37.15;99852.69;4489214;31;33526;-59
2022/07/03 08:43:03;;;;;;;9.13;6.75;;;;;;;30.06;37.93;99858.56;4484616;32;34166;-57
2022/07/03 08:45:33;;;;;;;10.88;6.47;;;;;;;30.09;37.57;99862.75;4486983;31;33823;-57
2022/07/03 08:48:01;;;;;;;8.40;6.30;;;;;;;30.61;37.11;99865.63;4497850;31;32963;-58
2022/07/03 08:50:33;;;;;;;8.85;6.60;;;;;;;30.74;36.68;99854.28;4496235;31;33713;-57
2022/07/03 08:53:03;;;;;;;8.18;5.87;;;;;;;30.70;36.35;99855.87;4499612;31;33058;-59
2022/07/03 08:55:30;;;;;;;8.40;6.50;;;;;;;30.83;36.29;99852.88;4497748;31;35017;-59
2022/07/03 08:58:02;;;;;;;9.95;6.00;;;;;;;31.16;36.11;99853.22;4499440;31;34624;-60
2022/07/03 09:00:31;;;;;;;8.68;5.53;;;;;;;31.06;36.12;99849.16;4498569;31;34918;-58
2022/07/03 09:02:59;;;;;;;7.55;5.53;;;;;;;30.97;35.91;99856.16;4489464;31;34089;-58
2022/07/03 09:05:27;;;;;;;10.77;6.03;;;;;;;30.90;35.27;99851.88;4489533;31;33799;-58
2022/07/03 09:07:55;;;;;;;8.68;5.50;;;;;;;31.22;34.06;99847.53;4483557;31;33490;-59
2022/07/03 09:10:23;;;;;;;8.57;5.43;;;;;;;31.37;32.83;99840.66;4477727;31;33699;-58
2022/07/03 09:12:51;;;;;;;7.22;5.05;;;;;;;31.16;31.97;99850.47;4494866;31;33898;-60
2022/07/03 09:15:19;;;;;;;7.18;5.20;;;;;;;31.50;32.39;99843.09;4491196;31;33748;-59
2022/07/03 09:18:01;;;;;;;8.23;5.75;;;;;;;31.55;32.11;99841.25;4494134;31;34402;-58
2022/07/03 09:20:40;;;;;;;8.15;5.28;;;;;;;31.66;32.52;99828.44;4497536;31;32411;-58
2022/07/03 09:23:19;;;;;;;8.40;5.40;;;;;;;31.90;32.15;99829.12;4496921;31;35140;-57
2022/07/03 09:25:51;;;;;;;8.00;5.87;;;;;;;32.12;31.93;99829.19;4498056;31;34543;-58
2022/07/03 09:28:23;;;;;;;6.82;4.95;;;;;;;32.29;30.92;99826.37;4498652;31;32508;-59
2022/07/03 09:30:59;;;;;;;9.63;5.05;;;;;;;32.08;31.14;99819.72;4497101;31;32476;-60
2022/07/03 09:33:27;;;;;;;7.05;4.93;;;;;;;32.52;31.09;99808.75;4500565;31;32803;-58
2022/07/03 09:35:55;;;;;;;8.23;5.03;;;;;;;32.54;31.56;99823.16;4499723;31;33887;-61
2022/07/03 09:38:23;;;;;;;7.20;4.80;;;;;;;32.13;31.44;99814.25;4488150;31;34040;-57
2022/07/03 09:40:57;;;;;;;7.65;4.95;;;;;;;32.34;31.38;99814.53;4498711;31;33598;-61
2022/07/03 09:43:28;;;;;;;8.13;5.30;;;;;;;32.61;30.71;99812.72;4501816;31;34029;-61
2022/07/03 09:46:00;;;;;;;8.25;5.00;;;;;;;32.96;29.96;99802.31;4502086;31;33732;-58
2022/07/03 09:48:29;;;;;;;6.62;4.93;;;;;;;32.73;30.57;99797.91;4501806;31;33546;-58
2022/07/03 09:51:25;;;;;;;7.22;5.15;;;;;;;33.19;29.68;99795.63;4494798;31;34031;-61
2022/07/03 09:53:58;;;;;;;11.63;4.62;;;;;;;33.11;30.03;99796.97;4489221;31;34194;-60
2022/07/03 09:56:37;;;;;;;9.07;5.30;;;;;;;32.75;30.53;99792.94;4499405;31;33772;-57
2022/07/03 09:59:15;;;;;;;7.05;4.40;;;;;;;32.78;30.17;99806.25;4499167;31;33282;-60
2022/07/03 10:01:44;;;;;;;9.02;5.28;;;;;;;32.77;30.00;99793.50;4500697;31;33666;-58
2022/07/03 10:04:20;;;;;;;6.72;4.65;;;;;;;33.10;29.68;99793.34;4496948;31;34021;-58
2022/07/03 10:06:59;;;;;;;7.03;4.37;;;;;;;33.70;28.69;99796.13;4500436;31;33345;-62
2022/07/03 10:09:31;;;;;;;7.57;4.60;;;;;;;34.12;28.38;99787.00;4500193;31;33461;-58
2022/07/03 10:12:01;;;;;;;6.87;4.82;;;;;;;33.81;29.16;99789.56;4501558;31;32704;-59
2022/07/03 10:14:32;;;;;;;6.40;4.78;;;;;;;34.10;27.82;99792.00;4497157;31;34552;-58
2022/07/03 10:17:01;;;;;;;5.57;4.05;;;;;;;34.16;26.88;99782.56;4496267;31;33090;-58
2022/07/03 10:19:30;;;;;;;6.05;4.12;;;;;;;33.61;28.12;99782.75;4499161;31;33371;-61
2022/07/03 10:22:00;;;;;;;5.70;3.95;;;;;;;33.79;26.77;99769.53;4498602;31;33555;-58
2022/07/03 10:24:30;;;;;;;6.10;3.78;;;;;;;32.86;28.98;99764.22;4501342;31;35039;-62
2022/07/03 10:26:58;;;;;;;6.07;3.95;;;;;;;33.13;28.41;99769.78;4495601;31;35086;-59
2022/07/03 10:29:28;;;;;;;8.70;3.50;;;;;;;33.92;27.82;99768.25;4501284;31;34149;-60
2022/07/03 10:31:57;;;;;;;7.03;3.97;;;;;;;34.17;26.67;99773.16;4496383;31;34931;-58
2022/07/03 10:34:27;;;;;;;6.47;3.62;;;;;;;33.91;27.60;99764.63;4493543;31;34797;-61
2022/07/03 10:36:59;;;;;;;6.68;4.00;;;;;;;34.36;27.15;99766.00;4499270;31;34085;-59
2022/07/03 10:39:37;;;;;;;6.45;3.83;;;;;;;34.49;26.30;99762.72;4499536;31;32899;-58
2022/07/03 10:45:03;;;;;;;6.50;3.67;;;;;;;34.61;26.33;99762.53;4489521;31;32859;-59
2022/07/03 10:47:39;;;;;;;7.72;3.42;;;;;;;34.64;26.24;99759.22;4490655;31;32604;-61
2022/07/03 10:50:11;;;;;;;7.00;3.35;;;;;;;35.13;26.07;99757.97;4500749;31;32278;-59
2022/07/03 10:52:39;;;;;;;6.82;3.60;;;;;;;34.68;25.26;99751.16;4501352;31;32544;-58
2022/07/03 10:55:08;;;;;;;7.60;3.60;;;;;;;35.05;25.77;99752.94;4493122;31;33859;-59
2022/07/03 10:57:37;;;;;;;7.15;3.80;;;;;;;35.04;25.63;99751.25;4499752;31;34637;-61
2022/07/03 11:00:13;;;;;;;5.22;3.33;;;;;;;34.50;26.12;99750.50;4489843;31;32929;-58
2022/07/03 11:02:47;;;;;;;7.82;3.50;;;;;;;34.97;25.55;99745.94;4498478;31;33661;-60
2022/07/03 11:05:19;;;;;;;7.93;4.32;;;;;;;35.30;25.89;99746.56;4498249;31;32836;-58
2022/07/03 11:07:50;;;;;;;6.20;3.63;;;;;;;35.44;25.70;99745.72;4500561;31;32714;-58
2022/07/03 11:10:18;;;;;;;7.75;4.05;;;;;;;35.08;26.29;99744.88;4500234;31;34513;-58
2022/07/03 11:13:03;;;;;;;6.18;3.50;;;;;;;34.96;26.10;99742.34;4500359;31;35070;-60
2022/07/03 11:15:43;;;;;;;7.22;4.05;;;;;;;34.62;26.51;99739.19;4492269;31;35099;-58
2022/07/03 11:18:25;;;;;;;5.87;3.50;;;;;;;34.40;27.44;99742.13;4486410;31;33430;-60
2022/07/03 11:20:52;;;;;;;8.70;4.35;;;;;;;34.69;26.53;99752.81;4485363;32;33201;-59
2022/07/03 11:23:26;;;;;;;7.85;3.80;;;;;;;34.82;26.56;99735.63;4493346;31;33571;-59
2022/07/03 11:25:55;;;;;;;;;;;;;;;34.42;26.81;99734.37;4492406;31;34015;-59
2022/07/03 11:28:33;;;;;;;7.78;4.25;;;;;;;34.78;26.93;99728.94;4497981;31;34142;-58
2022/07/03 11:31:13;;;;;;;6.20;3.65;;;;;;;35.08;26.61;99728.16;4490411;31;31963;-59
2022/07/03 11:33:57;;;;;;;6.50;4.05;;;;;;;34.97;25.92;99721.75;4496537;31;33914;-59
2022/07/03 11:36:33;;;;;;;6.55;4.32;;;;;;;34.77;26.29;99721.72;4499796;31;35680;-59
2022/07/03 11:39:00;;;;;;;5.28;3.62;;;;;;;35.20;26.43;99716.78;4499100;31;33722;-61
2022/07/03 11:41:48;;;;;;;6.85;3.80;;;;;;;34.76;27.56;99715.31;4499899;31;34496;-58
2022/07/03 11:44:18;;;;;;;5.87;3.60;;;;;;;34.54;26.54;99710.00;4492767;31;32407;-59
2022/07/03 11:46:48;;;;;;;6.95;3.78;;;;;;;35.04;26.63;99713.16;4498226;31;34093;-61
2022/07/03 11:49:21;;;;;;;6.28;3.97;;;;;;;35.11;26.64;99710.94;4492750;31;33087;-62
2022/07/03 11:51:59;;;;;;;8.53;3.93;;;;;;;35.09;26.17;99695.63;4498246;31;33194;-59
2022/07/03 11:54:32;;;;;;;6.32;4.05;;;;;;;35.38;26.24;99695.94;4499854;31;35085;-58
2022/07/03 11:57:00;;;;;;;11.65;3.60;;;;;;;35.05;26.78;99697.31;4497029;31;35639;-58